Time;durP1;ratioP1;P1;durP2;ratioP2;P2;SDS_P1;SDS_P2;PMS_P1;PMS_P2;Temp;Humidity;BMP_temperature;BMP_pressure;BME280_temperature;BME280_humidity;BME280_pressure;Samples;Min_cycle;Max_cycle;Signal;HPM_P1;HPM_P2
2023/10/23 00:00:12;;;;;;;4.83;2.67;;;11.40;1.00;;;;;;5078152;28;20210;-83
2023/10/23 00:02:38;;;;;;;4.03;2.73;;;11.40;1.00;;;;;;5077162;28;20192;-83
2023/10/23 00:05:05;;;;;;;8.20;2.93;;;11.40;1.00;;;;;;5073927;28;20473;-82
2023/10/23 00:07:30;;;;;;;6.73;2.27;;;11.40;1.00;;;;;;5072045;28;20443;-82
2023/10/23 00:09:56;;;;;;;8.77;2.67;;;11.40;1.00;;;;;;5077813;28;20953;-82
2023/10/23 00:12:22;;;;;;;5.77;2.90;;;11.40;1.00;;;;;;5069902;28;20190;-83
2023/10/23 00:14:47;;;;;;;6.17;2.63;;;11.40;1.00;;;;;;5068362;28;20229;-83
2023/10/23 00:17:13;;;;;;;7.67;3.70;;;11.40;1.00;;;;;;5074725;28;20807;-83
2023/10/23 00:19:38;;;;;;;8.20;3.73;;;11.40;1.00;;;;;;5077535;28;20245;-83
2023/10/23 00:22:04;;;;;;;9.27;4.00;;;11.40;1.00;;;;;;5077280;28;20174;-81
2023/10/23 00:24:29;;;;;;;11.50;4.17;;;11.40;1.00;;;;;;5060886;28;20190;-82
2023/10/23 00:26:55;;;;;;;10.33;4.80;;;11.40;1.00;;;;;;5074288;28;20200;-83
2023/10/23 00:29:20;;;;;;;6.13;4.17;;;11.40;1.00;;;;;;5074786;28;20185;-84
2023/10/23 00:31:46;;;;;;;11.03;5.33;;;11.40;1.00;;;;;;5075504;28;20216;-83
2023/10/23 00:34:12;;;;;;;6.27;4.70;;;11.40;1.00;;;;;;5069918;28;20217;-82
2023/10/23 00:36:37;;;;;;;6.50;3.90;;;11.40;1.00;;;;;;5069268;28;20219;-83
2023/10/23 00:39:03;;;;;;;6.03;4.50;;;11.30;1.00;;;;;;5072962;28;20253;-83
2023/10/23 00:41:28;;;;;;;7.80;4.33;;;11.30;1.00;;;;;;5070271;28;20692;-83
2023/10/23 00:43:54;;;;;;;10.50;4.67;;;11.30;1.00;;;;;;5082979;28;20655;-83
2023/10/23 00:46:20;;;;;;;12.67;4.97;;;11.30;1.00;;;;;;5075104;28;20277;-83
2023/10/23 00:48:50;;;;;;;9.40;4.80;;;11.20;1.00;;;;;;5073587;28;20695;-84
2023/10/23 00:51:19;;;;;;;7.40;4.87;;;11.20;1.00;;;;;;5072224;28;20551;-83
2023/10/23 00:53:46;;;;;;;17.40;4.90;;;11.20;1.00;;;;;;5075644;28;20500;-83
2023/10/23 00:56:12;;;;;;;6.20;4.80;;;11.20;1.00;;;;;;5087639;28;20455;-84
2023/10/23 00:58:40;;;;;;;7.57;4.33;;;11.10;1.00;;;;;;5076246;28;20511;-82
2023/10/23 01:01:09;;;;;;;11.40;5.60;;;11.10;1.00;;;;;;5074297;28;20485;-83
2023/10/23 01:03:35;;;;;;;15.53;4.97;;;11.10;1.00;;;;;;5073031;28;20432;-82
2023/10/23 01:06:01;;;;;;;10.70;5.10;;;11.10;1.00;;;;;;5066246;28;20460;-83
2023/10/23 01:08:26;;;;;;;13.87;5.20;;;11.10;1.00;;;;;;5066717;28;20190;-81
2023/10/23 01:10:52;;;;;;;15.93;5.40;;;11.10;1.00;;;;;;5064975;28;20512;-82
2023/10/23 01:13:17;;;;;;;6.90;4.10;;;11.10;1.00;;;;;;5073885;28;20181;-83
2023/10/23 01:15:43;;;;;;;12.23;4.50;;;11.10;1.00;;;;;;5069762;28;20209;-83
2023/10/23 01:18:08;;;;;;;11.47;4.30;;;11.00;1.00;;;;;;5070922;28;20181;-82
2023/10/23 01:20:34;;;;;;;7.63;3.90;;;11.00;1.00;;;;;;5063755;28;20180;-82
2023/10/23 01:23:01;;;;;;;5.20;3.57;;;11.00;1.00;;;;;;5076119;28;20188;-83
2023/10/23 01:25:27;;;;;;;8.97;4.10;;;11.00;1.00;;;;;;5068858;28;20612;-82
2023/10/23 01:27:53;;;;;;;10.00;4.33;;;11.00;1.00;;;;;;5076054;28;20443;-83
2023/10/23 01:30:19;;;;;;;8.47;4.70;;;11.00;1.00;;;;;;5070139;28;20502;-83
2023/10/23 01:32:45;;;;;;;10.67;4.30;;;11.00;1.00;;;;;;5057139;28;20436;-83
2023/10/23 01:35:11;;;;;;;7.67;4.80;;;10.90;1.00;;;;;;5070776;28;20510;-82
2023/10/23 01:37:36;;;;;;;12.20;5.43;;;10.90;1.00;;;;;;5076116;28;20181;-83
2023/10/23 01:40:03;;;;;;;16.87;5.60;;;10.90;1.00;;;;;;5072813;28;20205;-83
2023/10/23 01:42:30;;;;;;;8.80;5.00;;;10.90;1.00;;;;;;5077391;28;20453;-84
2023/10/23 01:44:56;;;;;;;15.00;5.23;;;10.90;1.00;;;;;;5073025;28;20992;-82
2023/10/23 01:47:23;;;;;;;6.87;4.00;;;10.80;1.00;;;;;;5073571;28;20444;-81
2023/10/23 01:49:49;;;;;;;7.07;4.87;;;10.80;1.00;;;;;;5068710;28;20431;-82
2023/10/23 01:52:15;;;;;;;11.67;4.70;;;10.80;1.00;;;;;;5067888;28;20792;-83
2023/10/23 01:54:41;;;;;;;8.70;3.97;;;10.80;1.00;;;;;;5070371;28;20679;-84
2023/10/23 01:57:06;;;;;;;9.57;4.10;;;10.80;1.00;;;;;;5072529;28;20434;-82
2023/10/23 01:59:32;;;;;;;7.80;3.63;;;10.70;1.00;;;;;;5070807;28;20185;-83
2023/10/23 02:01:57;;;;;;;10.73;3.23;;;10.70;1.00;;;;;;5075549;28;20198;-83
2023/10/23 02:04:23;;;;;;;10.90;3.50;;;10.70;1.00;;;;;;5066649;28;20189;-82
2023/10/23 02:06:48;;;;;;;5.00;2.40;;;10.70;1.00;;;;;;5072781;28;20212;-83
2023/10/23 02:09:15;;;;;;;9.33;2.67;;;10.70;1.00;;;;;;5074309;28;20204;-82
2023/10/23 02:11:41;;;;;;;6.47;2.77;;;10.60;1.00;;;;;;5071601;28;20568;-83
2023/10/23 02:14:07;;;;;;;7.87;2.63;;;10.60;1.00;;;;;;5069763;28;20470;-82
2023/10/23 02:16:34;;;;;;;11.20;3.40;;;10.60;1.00;;;;;;5074271;28;20201;-83
2023/10/23 02:18:59;;;;;;;4.77;2.70;;;10.60;1.00;;;;;;5066726;28;20177;-83
2023/10/23 02:21:25;;;;;;;8.03;2.80;;;10.50;1.00;;;;;;5070127;28;20439;-82
2023/10/23 02:23:51;;;;;;;6.70;2.80;;;10.50;1.00;;;;;;5067105;28;20608;-83
2023/10/23 02:26:17;;;;;;;6.13;2.77;;;10.50;1.00;;;;;;5072866;28;20455;-83
2023/10/23 02:28:42;;;;;;;5.40;2.73;;;10.50;1.00;;;;;;5074755;28;20188;-82
2023/10/23 02:31:08;;;;;;;8.67;3.10;;;10.50;1.00;;;;;;5071875;28;20223;-82
2023/10/23 02:33:34;;;;;;;6.20;3.10;;;10.50;1.00;;;;;;5063823;28;20610;-83
2023/10/23 02:36:00;;;;;;;7.10;3.10;;;10.40;1.00;;;;;;5089383;28;20462;-83
2023/10/23 02:38:25;;;;;;;6.13;2.70;;;10.40;1.00;;;;;;5067995;28;20204;-82
2023/10/23 02:40:52;;;;;;;8.27;2.90;;;10.40;1.00;;;;;;5068620;28;20493;-83
2023/10/23 02:43:18;;;;;;;8.07;3.30;;;10.40;1.00;;;;;;5074155;28;20751;-83
2023/10/23 02:45:43;;;;;;;7.30;3.20;;;10.40;1.00;;;;;;5073753;28;20520;-81
2023/10/23 02:48:09;;;;;;;10.03;2.97;;;10.30;1.00;;;;;;5064857;28;20444;-82
2023/10/23 02:50:34;;;;;;;7.73;3.03;;;10.30;1.00;;;;;;5074729;28;20647;-83
2023/10/23 02:53:00;;;;;;;7.30;3.63;;;10.20;1.00;;;;;;5074529;28;20553;-82
2023/10/23 02:55:29;;;;;;;6.27;3.13;;;10.20;1.00;;;;;;5069804;28;20210;-83
2023/10/23 02:57:55;;;;;;;5.63;3.17;;;10.20;1.00;;;;;;5078409;28;20174;-82
2023/10/23 03:00:21;;;;;;;7.20;3.43;;;10.20;1.00;;;;;;5072752;28;20825;-82
2023/10/23 03:02:48;;;;;;;4.20;2.70;;;10.10;1.00;;;;;;5060498;28;20680;-82
2023/10/23 03:05:14;;;;;;;6.97;2.77;;;10.10;1.00;;;;;;5070686;28;20512;-84
2023/10/23 03:07:40;;;;;;;4.00;3.07;;;10.10;1.00;;;;;;5066964;28;20435;-82
2023/10/23 03:10:06;;;;;;;6.83;3.03;;;10.10;1.00;;;;;;5070270;28;20696;-82
2023/10/23 03:12:32;;;;;;;15.23;3.00;;;10.00;1.00;;;;;;5066543;28;20185;-82
2023/10/23 03:14:57;;;;;;;5.23;2.87;;;10.00;1.00;;;;;;5071266;28;20479;-83
2023/10/23 03:17:23;;;;;;;6.97;2.50;;;10.00;1.00;;;;;;5076955;28;20569;-82
2023/10/23 03:19:48;;;;;;;6.33;2.83;;;10.00;1.00;;;;;;5075947;28;20388;-83
2023/10/23 03:22:14;;;;;;;7.47;3.30;;;9.90;1.00;;;;;;5073849;28;20635;-81
2023/10/23 03:24:41;;;;;;;8.97;2.80;;;9.90;1.00;;;;;;5072951;28;20662;-84
2023/10/23 03:27:07;;;;;;;7.03;3.50;;;9.90;1.00;;;;;;5075070;28;20181;-83
2023/10/23 03:29:32;;;;;;;8.97;3.33;;;9.90;1.00;;;;;;5073322;28;20438;-84
2023/10/23 03:31:58;;;;;;;8.03;3.87;;;9.80;1.00;;;;;;5070126;28;20182;-83
2023/10/23 03:34:25;;;;;;;5.87;3.60;;;9.90;1.00;;;;;;5064911;28;20210;-82
2023/10/23 03:36:51;;;;;;;6.83;3.40;;;9.90;1.00;;;;;;5070164;28;20209;-82
2023/10/23 03:39:16;;;;;;;11.43;4.80;;;9.90;1.00;;;;;;5078126;28;20996;-83
2023/10/23 03:41:42;;;;;;;10.43;3.47;;;9.90;1.00;;;;;;5072705;28;20455;-82
2023/10/23 03:44:08;;;;;;;12.27;4.20;;;9.90;1.00;;;;;;5067477;28;20219;-82
2023/10/23 03:46:34;;;;;;;8.77;3.13;;;9.90;1.00;;;;;;5070937;28;20193;-82
2023/10/23 03:48:59;;;;;;;7.10;3.83;;;9.90;1.00;;;;;;5075921;28;20450;-83
2023/10/23 03:51:25;;;;;;;6.50;2.90;;;9.90;1.00;;;;;;5076811;28;20268;-84
2023/10/23 03:53:51;;;;;;;5.07;2.80;;;9.90;1.00;;;;;;5073237;28;20200;-82
2023/10/23 03:56:16;;;;;;;7.53;3.10;;;9.90;1.00;;;;;;5076291;28;20205;-81
2023/10/23 03:58:44;;;;;;;8.03;3.37;;;9.90;1.00;;;;;;5069308;28;20212;-83
2023/10/23 04:01:10;;;;;;;3.77;2.40;;;9.80;1.00;;;;;;5075721;28;20177;-84
2023/10/23 04:03:36;;;;;;;7.30;2.97;;;9.80;1.00;;;;;;5068715;28;20439;-83
2023/10/23 04:06:04;;;;;;;9.27;3.17;;;9.70;1.00;;;;;;5068531;28;22210;-83
2023/10/23 04:08:30;;;;;;;5.37;2.83;;;9.70;1.00;;;;;;5071281;28;20189;-83
2023/10/23 04:10:56;;;;;;;4.10;2.50;;;9.70;1.00;;;;;;5068927;28;20446;-84
2023/10/23 04:13:22;;;;;;;4.10;2.60;;;9.60;1.00;;;;;;5077529;28;20455;-83
2023/10/23 04:15:52;;;;;;;5.70;2.47;;;9.60;1.00;;;;;;5072978;28;20320;-83
2023/10/23 04:18:17;;;;;;;4.33;2.60;;;9.60;1.00;;;;;;5065353;28;20428;-83
2023/10/23 04:20:43;;;;;;;4.63;3.20;;;9.60;1.00;;;;;;5066765;28;20432;-83
2023/10/23 04:23:08;;;;;;;4.50;2.63;;;9.50;1.00;;;;;;5064721;28;20207;-83
2023/10/23 04:25:34;;;;;;;7.93;2.73;;;9.50;1.00;;;;;;5075131;28;20220;-82
2023/10/23 04:27:59;;;;;;;5.43;3.20;;;9.50;1.00;;;;;;5076985;28;20193;-84
2023/10/23 04:30:25;;;;;;;7.10;2.67;;;9.50;1.00;;;;;;5076984;28;20211;-83
2023/10/23 04:32:50;;;;;;;3.40;2.60;;;9.40;1.00;;;;;;5075608;28;20193;-82
2023/10/23 04:35:16;;;;;;;3.47;2.90;;;9.40;1.00;;;;;;5072980;28;20217;-83
2023/10/23 04:37:41;;;;;;;5.20;2.70;;;9.40;1.00;;;;;;5073430;28;20265;-83
2023/10/23 04:40:07;;;;;;;6.90;3.07;;;9.40;1.00;;;;;;5068330;28;20979;-82
2023/10/23 04:42:33;;;;;;;10.93;3.50;;;9.30;1.00;;;;;;5070643;28;20250;-83
2023/10/23 04:44:58;;;;;;;3.77;2.43;;;9.30;1.00;;;;;;5068275;28;20451;-83
2023/10/23 04:47:24;;;;;;;3.67;2.60;;;9.30;1.00;;;;;;5079102;28;20189;-84
2023/10/23 04:49:49;;;;;;;5.70;3.00;;;9.30;1.00;;;;;;5079073;28;20260;-83
2023/10/23 04:52:16;;;;;;;7.50;3.30;;;9.30;1.00;;;;;;5075425;28;20219;-83
2023/10/23 04:54:42;;;;;;;5.60;3.60;;;9.30;1.00;;;;;;5059177;28;20206;-82
2023/10/23 04:57:08;;;;;;;7.90;3.40;;;9.20;1.00;;;;;;5070275;28;20443;-83
2023/10/23 04:59:35;;;;;;;6.23;3.70;;;9.20;1.00;;;;;;5075396;28;20189;-81
2023/10/23 05:02:00;;;;;;;6.73;3.40;;;9.20;1.00;;;;;;5076437;28;20523;-83
2023/10/23 05:04:31;;;;;;;6.23;3.90;;;9.20;1.00;;;;;;5066693;28;20463;-83
2023/10/23 05:06:57;;;;;;;9.33;3.53;;;9.20;1.00;;;;;;5068452;28;20197;-83
2023/10/23 05:09:23;;;;;;;9.53;2.83;;;9.20;1.00;;;;;;5073031;28;20435;-82
2023/10/23 05:11:49;;;;;;;13.60;3.67;;;9.20;1.00;;;;;;5074248;28;20189;-83
2023/10/23 05:14:14;;;;;;;5.63;3.60;;;9.10;1.00;;;;;;5074824;28;20212;-83
2023/10/23 05:16:40;;;;;;;5.73;3.70;;;9.10;1.00;;;;;;5064572;28;20432;-83
2023/10/23 05:19:07;;;;;;;8.13;3.80;;;9.00;1.00;;;;;;5057008;28;20738;-82
2023/10/23 05:21:32;;;;;;;5.07;3.50;;;9.00;1.00;;;;;;5057407;28;20420;-83
2023/10/23 05:23:58;;;;;;;5.67;3.70;;;8.90;1.00;;;;;;5065585;28;20925;-84
2023/10/23 05:26:23;;;;;;;8.90;4.13;;;8.90;1.00;;;;;;5075244;28;20205;-83
2023/10/23 05:28:51;;;;;;;10.93;4.27;;;8.90;1.00;;;;;;5076681;28;20188;-83
2023/10/23 05:31:17;;;;;;;6.07;3.63;;;8.90;1.00;;;;;;5066619;28;20330;-83
2023/10/23 05:33:42;;;;;;;10.83;3.70;;;8.90;1.00;;;;;;5066675;28;20501;-83
2023/10/23 05:36:09;;;;;;;6.00;3.57;;;8.90;1.00;;;;;;5076647;28;20477;-83
2023/10/23 05:38:36;;;;;;;6.80;3.87;;;8.90;1.00;;;;;;5075609;28;20181;-84
2023/10/23 05:41:02;;;;;;;5.80;3.83;;;8.90;1.00;;;;;;5061979;28;20432;-83
2023/10/23 05:43:28;;;;;;;9.57;4.10;;;8.90;1.00;;;;;;5074147;28;20462;-83
2023/10/23 05:46:01;;;;;;;4.40;3.70;;;8.90;1.00;;;;;;5069213;28;20463;-82
2023/10/23 05:48:26;;;;;;;4.43;3.20;;;8.90;1.00;;;;;;5068289;28;20443;-82
2023/10/23 05:51:05;;;;;;;6.80;3.83;;;8.80;1.00;;;;;;5072447;28;20432;-82
2023/10/23 05:53:31;;;;;;;6.03;3.73;;;8.80;1.00;;;;;;5074903;28;20301;-83
2023/10/23 05:56:04;;;;;;;9.10;3.83;;;8.80;1.00;;;;;;5075227;28;20984;-83
2023/10/23 05:58:30;;;;;;;8.13;4.00;;;8.90;1.00;;;;;;5072838;28;20450;-83
2023/10/23 06:00:56;;;;;;;6.20;3.77;;;8.90;1.00;;;;;;5065623;28;20436;-82
2023/10/23 06:03:22;;;;;;;7.13;4.10;;;8.90;1.00;;;;;;5068931;28;20539;-83
2023/10/23 06:05:47;;;;;;;7.83;4.60;;;8.90;1.00;;;;;;5087181;28;20205;-84
2023/10/23 06:08:13;;;;;;;7.23;4.50;;;8.90;1.00;;;;;;5073513;28;20234;-81
2023/10/23 06:10:43;;;;;;;8.57;5.60;;;8.90;1.00;;;;;;5060975;28;20212;-83
2023/10/23 06:13:09;;;;;;;7.07;5.10;;;8.80;1.00;;;;;;5074497;28;20189;-81
2023/10/23 06:15:35;;;;;;;7.87;4.90;;;8.90;1.00;;;;;;5067031;28;20482;-83
2023/10/23 06:18:02;;;;;;;7.60;4.97;;;9.00;1.00;;;;;;5069516;28;20189;-82
2023/10/23 06:20:27;;;;;;;6.30;4.80;;;9.10;1.00;;;;;;5069634;28;20185;-82
2023/10/23 06:22:53;;;;;;;12.13;5.13;;;9.20;1.00;;;;;;5069675;28;20435;-81
2023/10/23 06:25:18;;;;;;;7.73;4.10;;;9.40;1.00;;;;;;5066315;28;20213;-81
2023/10/23 06:27:44;;;;;;;14.13;5.60;;;9.40;1.00;;;;;;5072763;28;20248;-80
2023/10/23 06:30:10;;;;;;;7.20;3.93;;;9.50;1.00;;;;;;5085608;28;20200;-83
2023/10/23 06:32:35;;;;;;;8.63;4.60;;;9.70;1.00;;;;;;5073719;28;20196;-81
2023/10/23 06:35:01;;;;;;;7.17;4.47;;;9.80;1.00;;;;;;5067005;28;20490;-82
2023/10/23 06:37:27;;;;;;;11.73;4.90;;;9.90;1.00;;;;;;5073358;28;20186;-83
2023/10/23 06:39:52;;;;;;;9.30;3.80;;;10.00;1.00;;;;;;5074110;28;20185;-82
2023/10/23 06:42:18;;;;;;;9.17;4.27;;;10.10;1.00;;;;;;5057570;28;20182;-83
2023/10/23 06:44:43;;;;;;;6.20;3.80;;;10.20;1.00;;;;;;5072452;28;20189;-81
2023/10/23 06:47:10;;;;;;;10.47;4.27;;;10.40;99.90;;;;;;5069129;28;20193;-82
2023/10/23 06:49:37;;;;;;;9.00;5.43;;;10.50;99.90;;;;;;5070896;28;20189;-81
2023/10/23 06:52:04;;;;;;;11.97;4.67;;;10.70;99.90;;;;;;5070777;28;20427;-82
2023/10/23 06:54:29;;;;;;;7.20;4.37;;;10.90;99.90;;;;;;5073792;28;20474;-81
2023/10/23 06:56:55;;;;;;;8.50;5.10;;;11.00;99.90;;;;;;5073481;28;20427;-82
2023/10/23 06:59:20;;;;;;;8.83;5.27;;;11.30;23.10;;;;;;5075109;28;20264;-82
2023/10/23 07:01:46;;;;;;;19.40;6.93;;;11.50;1.00;;;;;;5074803;28;20209;-81
2023/10/23 07:04:11;;;;;;;15.93;4.67;;;11.60;99.90;;;;;;5074886;28;20610;-83
2023/10/23 07:06:37;;;;;;;6.50;4.53;;;12.10;99.90;;;;;;5074790;28;20250;-82
2023/10/23 07:09:04;;;;;;;10.40;4.40;;;12.80;66.80;;;;;;5072205;28;20193;-81
2023/10/23 07:11:29;;;;;;;6.20;3.97;;;13.90;20.00;;;;;;5073760;28;20192;-83
2023/10/23 07:13:55;;;;;;;6.60;3.90;;;14.90;99.90;;;;;;5071375;28;20440;-82
2023/10/23 07:16:20;;;;;;;9.87;4.33;;;15.80;1.00;;;;;;5073069;28;20216;-83
2023/10/23 07:18:46;;;;;;;5.83;3.67;;;16.90;1.00;;;;;;5072054;28;20177;-83
2023/10/23 07:21:11;;;;;;;6.37;3.70;;;18.70;1.00;;;;;;5070891;28;20184;-83
2023/10/23 07:23:37;;;;;;;9.20;4.57;;;19.50;99.90;;;;;;5071888;28;20709;-81
2023/10/23 07:26:08;;;;;;;9.40;4.97;;;19.90;99.90;;;;;;5070884;28;20229;-83
2023/10/23 07:28:39;;;;;;;5.80;3.73;;;19.90;99.90;;;;;;5071239;28;20659;-82
2023/10/23 07:31:06;;;;;;;7.17;4.50;;;20.20;99.90;;;;;;5066636;28;20428;-83
2023/10/23 07:33:32;;;;;;;7.33;4.23;;;20.70;99.90;;;;;;5073577;28;20454;-84
2023/10/23 07:36:04;;;;;;;10.13;3.50;;;20.50;99.90;;;;;;5071213;28;20515;-83
2023/10/23 07:38:30;;;;;;;6.73;3.93;;;20.20;99.90;;;;;;5072700;28;20439;-82
2023/10/23 07:40:56;;;;;;;4.97;2.90;;;20.10;99.90;;;;;;5074657;28;20438;-82
2023/10/23 07:43:21;;;;;;;5.87;3.27;;;20.10;99.90;;;;;;5067299;28;20308;-82
2023/10/23 07:45:47;;;;;;;8.70;3.77;;;20.70;99.90;;;;;;5076215;28;20701;-85
2023/10/23 07:48:12;;;;;;;7.23;3.10;;;21.00;99.90;;;;;;5073758;28;20201;-83
2023/10/23 07:50:38;;;;;;;6.23;3.10;;;21.20;99.90;;;;;;5074235;28;20185;-82
2023/10/23 07:53:03;;;;;;;7.80;3.07;;;20.60;99.90;;;;;;5077784;28;20193;-83
2023/10/23 07:55:29;;;;;;;6.17;3.10;;;19.70;99.90;;;;;;5079086;28;20276;-82
2023/10/23 07:57:54;;;;;;;8.53;3.10;;;19.10;99.90;;;;;;5077617;28;20310;-83
2023/10/23 08:00:20;;;;;;;5.67;3.00;;;18.70;99.90;;;;;;5070204;28;20192;-82
2023/10/23 08:02:45;;;;;;;7.10;4.97;;;18.20;99.90;;;;;;5074814;28;20190;-82
2023/10/23 08:05:11;;;;;;;9.90;7.80;;;18.10;99.90;;;;;;5069891;28;20882;-81
2023/10/23 08:07:37;;;;;;;13.83;7.13;;;18.40;99.90;;;;;;5075127;28;20185;-81
2023/10/23 08:10:04;;;;;;;6.70;4.27;;;18.90;99.90;;;;;;5072095;28;20888;-82
2023/10/23 08:12:29;;;;;;;5.80;3.50;;;19.30;99.90;;;;;;5076424;28;20189;-80
2023/10/23 08:14:55;;;;;;;10.17;3.50;;;19.80;99.90;;;;;;5077498;28;20541;-81
2023/10/23 08:17:20;;;;;;;8.53;3.50;;;19.70;99.90;;;;;;5077202;28;20174;-82
2023/10/23 08:19:46;;;;;;;4.13;3.23;;;19.90;99.90;;;;;;5077496;28;20198;-82
2023/10/23 08:22:11;;;;;;;8.30;3.23;;;19.80;99.90;;;;;;5076896;28;20837;-84
2023/10/23 08:24:37;;;;;;;6.20;3.87;;;20.60;99.90;;;;;;5079592;28;20306;-83
2023/10/23 08:27:02;;;;;;;6.10;3.13;;;21.20;99.90;;;;;;5076674;28;20203;-83
2023/10/23 08:29:28;;;;;;;7.53;2.77;;;21.70;99.90;;;;;;5077955;28;20277;-84
2023/10/23 08:31:54;;;;;;;4.27;2.37;;;22.00;99.90;;;;;;5080433;28;20181;-80
2023/10/23 08:34:21;;;;;;;7.40;3.30;;;22.00;99.90;;;;;;5073155;28;20296;-82
2023/10/23 08:36:48;;;;;;;4.77;2.93;;;21.80;99.90;;;;;;5076656;28;20201;-81
2023/10/23 08:39:13;;;;;;;5.90;2.90;;;21.70;99.90;;;;;;5075097;28;20511;-81
2023/10/23 08:41:39;;;;;;;6.00;2.93;;;21.60;99.90;;;;;;5076314;28;20451;-80
2023/10/23 08:44:06;;;;;;;7.87;3.30;;;21.50;99.90;;;;;;5075476;28;20196;-81
2023/10/23 08:46:33;;;;;;;6.47;2.67;;;21.20;99.90;;;;;;5070396;28;20463;-82
2023/10/23 08:48:59;;;;;;;4.23;3.00;;;21.00;99.90;;;;;;5075202;28;20525;-81
2023/10/23 08:51:25;;;;;;;5.80;3.00;;;20.80;99.90;;;;;;5073757;28;20463;-82
2023/10/23 08:54:08;;;;;;;4.50;2.70;;;20.70;99.90;;;;;;5074647;28;20882;-81
2023/10/23 08:56:39;;;;;;;4.97;2.40;;;20.60;99.90;;;;;;5072248;28;20451;-81
2023/10/23 08:59:05;;;;;;;5.30;2.73;;;20.60;99.90;;;;;;5071363;28;20451;-83
2023/10/23 09:01:34;;;;;;;5.33;2.47;;;20.80;99.90;;;;;;5073887;28;20446;-81
2023/10/23 09:04:00;;;;;;;5.53;2.60;;;20.70;99.90;;;;;;5070201;28;20436;-82
2023/10/23 09:06:25;;;;;;;4.77;2.60;;;20.40;99.90;;;;;;5071805;28;20462;-82
2023/10/23 09:08:51;;;;;;;5.10;2.40;;;20.70;99.90;;;;;;5072090;28;20192;-81
2023/10/23 09:11:17;;;;;;;11.60;4.20;;;20.80;99.90;;;;;;5073482;28;20193;-81
2023/10/23 09:13:42;;;;;;;6.90;3.00;;;20.60;99.90;;;;;;5071038;28;20765;-80
2023/10/23 09:16:10;;;;;;;4.23;2.67;;;20.70;99.90;;;;;;5074040;28;20213;-81
2023/10/23 09:18:49;;;;;;;4.87;2.93;;;20.20;99.90;;;;;;5075321;28;20185;-82
2023/10/23 09:21:15;;;;;;;6.53;3.27;;;19.80;99.90;;;;;;5068846;28;20439;-81
2023/10/23 09:24:00;;;;;;;3.87;3.10;;;19.30;99.90;;;;;;5073109;28;20457;-81
2023/10/23 09:26:26;;;;;;;4.37;2.93;;;18.90;99.90;;;;;;5072837;28;20455;-81
2023/10/23 09:28:55;;;;;;;3.53;2.63;;;19.00;99.90;;;;;;5073805;28;20439;-81
2023/10/23 09:31:21;;;;;;;6.33;3.30;;;19.20;99.90;;;;;;5073658;28;20789;-81
2023/10/23 09:33:51;;;;;;;6.00;3.20;;;19.20;99.90;;;;;;5072816;28;20448;-81
2023/10/23 09:36:17;;;;;;;6.50;3.60;;;19.10;99.90;;;;;;5072090;28;20479;-81
2023/10/23 09:38:54;;;;;;;7.30;4.40;;;18.90;99.90;;;;;;5070755;28;20431;-81
2023/10/23 09:41:20;;;;;;;7.17;5.47;;;18.40;99.90;;;;;;5071328;28;20450;-80
2023/10/23 09:43:48;;;;;;;10.70;5.17;;;18.20;99.90;;;;;;5070604;28;20492;-81
2023/10/23 09:46:14;;;;;;;10.30;5.87;;;18.60;99.90;;;;;;5056983;28;21015;-81
2023/10/23 09:48:44;;;;;;;9.20;5.77;;;18.70;99.90;;;;;;5045935;28;20485;-82
2023/10/23 09:51:22;;;;;;;8.40;5.77;;;18.70;99.90;;;;;;5050448;28;20281;-83
2023/10/23 09:54:00;;;;;;;8.80;6.40;;;18.70;99.90;;;;;;5052205;28;20440;-83
2023/10/23 09:56:30;;;;;;;8.80;6.10;;;18.50;99.90;;;;;;5052656;28;20455;-84
2023/10/23 09:59:05;;;;;;;8.23;5.57;;;18.70;99.90;;;;;;5052799;28;20444;-83
2023/10/23 10:01:41;;;;;;;8.80;5.70;;;18.70;99.90;;;;;;5046366;28;20805;-83
2023/10/23 10:04:22;;;;;;;8.97;5.80;;;18.60;99.90;;;;;;5045530;28;20878;-83
2023/10/23 10:06:53;;;;;;;9.70;6.50;;;18.70;99.90;;;;;;5051197;28;20496;-83
2023/10/23 10:09:21;;;;;;;12.80;5.73;;;18.70;99.90;;;;;;5045121;28;20497;-83
2023/10/23 10:11:48;;;;;;;14.30;6.60;;;18.50;99.90;;;;;;5056187;28;20492;-83
2023/10/23 10:14:16;;;;;;;10.80;7.03;;;18.70;99.90;;;;;;5055040;28;20874;-83
2023/10/23 10:16:41;;;;;;;12.93;6.53;;;18.30;99.90;;;;;;5055214;28;20440;-83
2023/10/23 10:19:08;;;;;;;8.80;7.23;;;18.30;99.90;;;;;;5054370;28;20474;-83
2023/10/23 10:21:45;;;;;;;14.87;10.70;;;18.30;99.90;;;;;;5055015;28;20181;-83
2023/10/23 10:24:11;;;;;;;17.40;11.93;;;17.90;1.00;;;;;;5047503;28;20482;-83
2023/10/23 10:26:38;;;;;;;17.50;12.83;;;18.30;1.00;;;;;;5052996;28;20456;-83
2023/10/23 10:29:04;;;;;;;18.77;14.67;;;18.20;1.00;;;;;;5053620;28;20439;-83
2023/10/23 10:31:59;;;;;;;21.70;16.27;;;17.70;1.00;;;;;;5052301;28;20428;-83
2023/10/23 10:34:26;;;;;;;23.53;18.83;;;17.50;1.00;;;;;;5053388;28;20232;-83
2023/10/23 10:36:52;;;;;;;19.90;14.70;;;17.20;1.00;;;;;;5053325;28;20450;-83
2023/10/23 10:39:18;;;;;;;22.90;17.77;;;17.40;1.00;;;;;;5054105;28;20522;-84
2023/10/23 10:41:44;;;;;;;18.90;16.20;;;17.00;1.00;;;;;;5051221;28;20433;-83
2023/10/23 10:44:10;;;;;;;21.27;18.03;;;16.80;1.00;;;;;;5047974;28;20456;-83
2023/10/23 10:46:39;;;;;;;22.13;19.70;;;16.60;1.00;;;;;;5053352;28;20467;-83
2023/10/23 10:49:05;;;;;;;25.33;19.00;;;16.20;48.90;;;;;;5051365;28;20186;-83
2023/10/23 10:51:31;;;;;;;23.47;19.63;;;16.00;99.90;;;;;;5054008;28;20440;-82
2023/10/23 10:54:02;;;;;;;25.10;18.50;;;16.10;99.90;;;;;;5054129;28;20425;-83
2023/10/23 10:56:27;;;;;;;24.57;18.93;;;16.20;99.90;;;;;;5054788;28;20467;-82
2023/10/23 10:58:53;;;;;;;28.03;20.80;;;16.20;99.90;;;;;;5056474;28;20920;-83
2023/10/23 11:01:22;;;;;;;26.57;17.63;;;15.90;99.90;;;;;;5053557;28;20240;-83
2023/10/23 11:03:48;;;;;;;23.23;17.40;;;15.90;99.90;;;;;;5055161;28;20190;-83
2023/10/23 11:06:13;;;;;;;23.33;16.40;;;15.90;99.90;;;;;;5045853;28;20585;-83
2023/10/23 11:08:40;;;;;;;22.47;15.70;;;16.00;99.90;;;;;;5049789;28;20189;-83
2023/10/23 11:11:06;;;;;;;18.53;15.87;;;16.20;99.90;;;;;;5054040;28;20190;-83
2023/10/23 11:13:32;;;;;;;19.80;15.17;;;16.00;99.90;;;;;;5054989;28;20516;-83
2023/10/23 11:15:58;;;;;;;20.50;16.90;;;15.90;99.90;;;;;;5052948;28;20495;-83
2023/10/23 11:18:23;;;;;;;20.83;12.83;;;15.70;99.90;;;;;;5051404;28;20810;-82
2023/10/23 11:20:49;;;;;;;17.63;15.83;;;16.00;99.90;;;;;;5049507;28;20829;-82
2023/10/23 11:23:18;;;;;;;15.43;12.93;;;15.80;1.00;;;;;;5052738;28;20628;-83
2023/10/23 11:25:51;;;;;;;19.20;13.60;;;15.90;99.90;;;;;;5051569;28;20206;-83
2023/10/23 11:28:17;;;;;;;13.57;12.17;;;15.90;1.00;;;;;;5043345;28;20448;-82
2023/10/23 11:30:48;;;;;;;16.07;13.13;;;15.90;1.00;;;;;;5053351;28;20451;-83
2023/10/23 11:33:15;;;;;;;17.17;12.67;;;15.80;1.00;;;;;;5052867;28;20447;-83
2023/10/23 11:35:42;;;;;;;15.27;13.20;;;15.90;1.00;;;;;;5049619;28;20843;-83
2023/10/23 11:38:21;;;;;;;14.20;12.00;;;15.70;1.00;;;;;;5052586;28;20493;-83
2023/10/23 11:40:47;;;;;;;16.03;11.93;;;15.90;1.00;;;;;;5053933;28;20443;-83
2023/10/23 11:43:15;;;;;;;13.63;11.80;;;16.00;1.00;;;;;;5057864;28;20446;-83
2023/10/23 11:45:45;;;;;;;14.00;11.10;;;16.20;1.00;;;;;;5054624;28;20233;-83
2023/10/23 11:48:14;;;;;;;19.50;10.50;;;16.10;1.00;;;;;;5057299;28;20475;-82
2023/10/23 11:50:41;;;;;;;12.20;9.40;;;16.00;1.00;;;;;;5055006;28;20446;-83
2023/10/23 11:53:06;;;;;;;17.20;10.20;;;16.00;1.00;;;;;;5058344;28;20428;-82
2023/10/23 11:55:34;;;;;;;13.37;10.47;;;15.90;1.00;;;;;;5056950;28;20567;-83
2023/10/23 11:58:01;;;;;;;12.60;8.30;;;16.00;1.00;;;;;;5057171;28;20186;-83
2023/10/23 12:00:30;;;;;;;11.80;8.70;;;16.10;1.00;;;;;;5055871;28;20436;-82
2023/10/23 12:02:56;;;;;;;12.73;7.70;;;15.90;1.00;;;;;;5050418;28;20511;-82
2023/10/23 12:05:22;;;;;;;11.13;7.73;;;15.80;1.00;;;;;;5053778;28;20559;-82
2023/10/23 12:07:49;;;;;;;10.97;7.60;;;15.90;1.00;;;;;;5055936;28;20198;-82
2023/10/23 12:10:19;;;;;;;12.43;7.20;;;15.80;91.00;;;;;;5055724;28;20534;-82
2023/10/23 12:12:45;;;;;;;8.73;7.93;;;16.00;1.00;;;;;;5056435;28;20810;-82
2023/10/23 12:15:12;;;;;;;15.60;7.60;;;16.00;1.00;;;;;;5056399;28;20468;-83
2023/10/23 12:17:38;;;;;;;10.03;8.00;;;16.10;1.00;;;;;;5057491;28;20482;-83
2023/10/23 12:20:08;;;;;;;7.57;6.77;;;16.30;1.00;;;;;;5053854;28;20441;-83
2023/10/23 12:22:44;;;;;;;9.40;5.80;;;16.50;99.90;;;;;;5053778;28;20447;-83
2023/10/23 12:25:11;;;;;;;12.60;6.77;;;16.40;99.90;;;;;;5056594;28;20976;-83
2023/10/23 12:27:39;;;;;;;12.17;5.20;;;16.40;99.90;;;;;;5055391;28;20950;-82
2023/10/23 12:30:06;;;;;;;22.37;7.10;;;16.60;99.90;;;;;;5045532;28;20523;-83
2023/10/23 12:32:32;;;;;;;6.70;5.93;;;16.50;99.90;;;;;;5056092;28;20425;-82
2023/10/23 12:34:59;;;;;;;7.83;4.80;;;16.50;99.90;;;;;;5055480;28;20480;-83
2023/10/23 12:37:27;;;;;;;8.17;5.27;;;16.60;99.90;;;;;;5052104;28;20447;-84
2023/10/23 12:39:54;;;;;;;10.97;5.83;;;16.60;99.90;;;;;;5053553;28;20533;-83
2023/10/23 12:42:20;;;;;;;13.67;5.53;;;16.60;99.90;;;;;;5055451;28;20420;-83
2023/10/23 12:44:49;;;;;;;7.83;4.47;;;16.60;94.50;;;;;;5055470;28;20436;-82
2023/10/23 12:47:15;;;;;;;8.53;4.63;;;16.60;96.70;;;;;;5051301;28;20186;-82